Gold Hill, North Carolina
Current Conditions -  °F | °C
As of 10:55 AM on Thursday 30 Oct 2014 (Local Time) from KVUJ Reporting Station
Clear Clear  
Wind Chill: 63°   Ceiling: Unl
Heat Index: 63°   Visibility: 10mi
Dew Point: 39°   Wind: 10mph
Humidity: 42%   Direction: 40°NE
Pressure: 30.11"   Gusts: NA
Location:  35.52°N, 80.34°W
Report Text: KVUJ 301455Z AUTO 04009KT 10SM CLR 17/04 A3011 RMK AO2 T01700038
Loading
Personal Weather Stations






























Interactive Weather Map
Tropical Storm Tracking
New forecast layout! Learn more

10-Day Weather Forecast

Advertisements
Track Severe Weather on mobile